Aviation Digital Data Service (ADDS)

Output produced by METARs form (2114 UTC 23 July 2016)
found at http://aviationweather.gov/adds/metars/
 
KAEX 231730Z 2318/2418 VRB04KT P6SM VCTS SCT040CB SCT250 
     FM240200 VRB03KT P6SM SCT250